Terminal Aerodrome Forecast
Issued by NWS

Home | Current Version | Previous Version | Text Only | Print | Product List | Glossary On
Versions: 1 2 3 4 5 6 7 8 9 10 11 12 13 14
092
FTUS45 KRIW 051219 AAA
TAFRKS
TAF AMD
KRKS 051219Z 0512/0612 27020G28KT 2SM -SHSN OVC015
      TEMPO 0512/0514 28030G40KT 1/2SM SN BLSN OVC010
     FM051400 28024G34KT P6SM FEW020 SCT050
     FM052300 28013G21KT P6SM FEW050
     FM060200 24007KT P6SM SKC=

USA.gov is the U.S. government's official web portal to all federal, state and local government web resources and services.